createdAt,value
2023-01-17T07:05:20.699Z,5.65
2023-01-17T07:06:22.721Z,5.65
2023-01-17T07:07:24.774Z,5.59
2023-01-17T07:08:26.779Z,5.61
2023-01-17T07:09:28.786Z,5.59
2023-01-17T07:10:30.788Z,5.59
2023-01-17T07:11:32.792Z,5.61
2023-01-17T07:12:34.817Z,5.54
2023-01-17T07:13:36.823Z,5.54
2023-01-17T07:14:38.822Z,5.54
2023-01-17T07:15:40.862Z,5.53
2023-01-17T07:16:42.842Z,5.53
2023-01-17T07:17:44.856Z,5.47
2023-01-17T07:18:46.890Z,5.49
2023-01-17T07:19:48.910Z,5.49
2023-01-17T07:20:50.936Z,5.47
2023-01-17T07:21:52.971Z,5.49
2023-01-17T07:22:54.987Z,5.54
2023-01-17T07:23:56.998Z,5.50
2023-01-17T07:24:59.016Z,5.49
2023-01-17T07:26:01.015Z,5.49
2023-01-17T07:27:03.049Z,5.46
2023-01-17T07:28:05.072Z,5.43
2023-01-17T07:29:07.071Z,5.47
2023-01-17T07:30:09.108Z,5.45
2023-01-17T07:31:11.236Z,5.46
2023-01-17T07:32:13.278Z,5.45
2023-01-17T07:33:15.291Z,5.47
2023-01-17T07:34:17.311Z,5.50
2023-01-17T07:35:19.319Z,5.50
2023-01-17T07:36:21.314Z,5.50
2023-01-17T07:37:23.327Z,5.53
2023-01-17T07:38:25.328Z,5.56
2023-01-17T07:39:27.331Z,5.54
2023-01-17T07:40:29.402Z,5.53
2023-01-17T07:41:31.414Z,5.47
2023-01-17T07:42:33.435Z,5.50
2023-01-17T07:43:35.483Z,5.53
2023-01-17T07:44:38.959Z,5.49
2023-01-17T07:45:39.195Z,5.47
2023-01-17T07:46:41.235Z,5.49
2023-01-17T07:47:43.300Z,5.45
2023-01-17T07:48:45.319Z,5.49
2023-01-17T07:49:47.336Z,5.47
2023-01-17T07:50:49.356Z,5.46
2023-01-17T07:51:51.376Z,5.46
2023-01-17T07:52:53.403Z,5.40
2023-01-17T07:53:55.440Z,5.34
2023-01-17T07:54:57.456Z,5.35
2023-01-17T07:55:59.484Z,5.37
2023-01-17T07:57:01.500Z,5.42
2023-01-17T07:58:03.537Z,5.40
2023-01-17T07:59:05.557Z,5.43
2023-01-17T08:00:07.594Z,5.40
2023-01-17T08:01:09.714Z,5.43
2023-01-17T08:02:11.733Z,5.46
2023-01-17T08:03:13.730Z,5.49
2023-01-17T08:04:15.811Z,5.54
2023-01-17T08:05:17.818Z,5.56
2023-01-17T08:06:19.860Z,5.53
2023-01-17T08:07:21.881Z,5.56
2023-01-17T08:08:23.873Z,5.57
2023-01-17T08:09:25.870Z,5.56
2023-01-17T08:10:27.876Z,5.59
2023-01-17T08:11:29.906Z,5.59
2023-01-17T08:12:31.934Z,5.56
2023-01-17T08:13:33.938Z,5.56
2023-01-17T08:14:35.965Z,5.57
2023-01-17T08:15:37.986Z,5.56
2023-01-17T08:16:40.083Z,5.53
2023-01-17T08:17:42.109Z,5.47
2023-01-17T08:18:44.119Z,5.46
2023-01-17T08:19:46.147Z,5.43
2023-01-17T08:20:48.157Z,5.40
2023-01-17T08:21:50.155Z,5.35
2023-01-17T08:22:52.155Z,5.29
2023-01-17T08:23:54.160Z,5.28
2023-01-17T08:24:56.226Z,5.27
2023-01-17T08:25:58.251Z,5.29
2023-01-17T08:27:00.272Z,5.29
2023-01-17T08:28:02.296Z,5.34
2023-01-17T08:29:04.335Z,5.42
2023-01-17T08:30:06.330Z,5.49
2023-01-17T08:31:08.358Z,5.64
2023-01-17T08:32:10.378Z,5.69
2023-01-17T08:33:12.432Z,5.72
2023-01-17T08:34:14.449Z,5.76
2023-01-17T08:35:16.464Z,5.82
2023-01-17T08:36:18.484Z,5.87
2023-01-17T08:37:20.515Z,5.97
2023-01-17T08:38:22.523Z,6.02
2023-01-17T08:39:24.547Z,6.11
2023-01-17T08:40:26.559Z,6.12
2023-01-17T08:41:28.575Z,6.09
2023-01-17T08:42:30.579Z,6.04
2023-01-17T08:43:32.597Z,6.02
2023-01-17T08:44:34.583Z,5.98
2023-01-17T08:45:36.656Z,5.93
2023-01-17T08:46:38.668Z,5.86
2023-01-17T08:47:40.695Z,5.84
2023-01-17T08:48:42.716Z,5.73
2023-01-17T08:49:44.788Z,5.71
2023-01-17T08:50:46.798Z,5.69
2023-01-17T08:51:49.614Z,5.71
2023-01-17T08:52:50.531Z,5.61
2023-01-17T08:53:52.516Z,5.59
2023-01-17T08:54:54.537Z,5.62
2023-01-17T08:55:56.552Z,5.57
2023-01-17T08:56:58.620Z,5.61
2023-01-17T08:58:00.671Z,5.57
2023-01-17T08:59:02.712Z,5.53
2023-01-17T09:00:04.752Z,5.46
2023-01-17T09:01:06.937Z,5.46
2023-01-17T09:02:08.051Z,5.43
2023-01-17T09:03:08.993Z,5.43
2023-01-17T09:04:11.049Z,5.43
2023-01-17T09:05:13.053Z,5.43
2023-01-17T09:06:15.055Z,5.42
2023-01-17T09:07:17.078Z,5.46
2023-01-17T09:08:19.100Z,5.49
2023-01-17T09:09:21.135Z,5.50
2023-01-17T09:10:23.136Z,5.56
2023-01-17T09:11:25.170Z,5.61
2023-01-17T09:12:27.174Z,5.66
2023-01-17T09:13:29.196Z,5.68
2023-01-17T09:14:31.277Z,5.73
2023-01-17T09:15:33.303Z,5.84
2023-01-17T09:16:35.437Z,5.90
2023-01-17T09:17:37.433Z,5.91
2023-01-17T09:18:39.468Z,5.97
2023-01-17T09:19:50.884Z,6.04
2023-01-17T09:20:42.978Z,6.04
2023-01-17T09:21:45.020Z,6.01
2023-01-17T09:22:47.070Z,6.01
2023-01-17T09:23:49.107Z,5.97
2023-01-17T09:24:51.106Z,5.94
2023-01-17T09:25:53.127Z,5.90
2023-01-17T09:26:55.163Z,5.91
2023-01-17T09:27:57.168Z,5.89
2023-01-17T09:28:59.172Z,5.86
2023-01-17T09:30:01.195Z,5.90
2023-01-17T09:31:03.252Z,5.99
2023-01-17T09:32:05.254Z,6.09
2023-01-17T09:33:07.256Z,6.09
2023-01-17T09:34:09.281Z,6.19
2023-01-17T09:35:11.284Z,6.40
2023-01-17T09:36:13.296Z,6.53
2023-01-17T09:37:15.312Z,6.62
2023-01-17T09:38:17.335Z,6.69
2023-01-17T09:39:19.366Z,6.73
2023-01-17T09:40:21.395Z,6.74
2023-01-17T09:41:23.404Z,6.81
2023-01-17T09:42:25.409Z,6.83
2023-01-17T09:43:27.430Z,6.88
2023-01-17T09:44:29.466Z,6.97
2023-01-17T09:45:31.464Z,7.05
2023-01-17T09:46:33.462Z,7.10
2023-01-17T09:47:35.574Z,7.17
2023-01-17T09:48:37.559Z,7.29
2023-01-17T09:49:39.601Z,7.35
2023-01-17T09:50:41.611Z,7.39
2023-01-17T09:51:43.630Z,7.31
2023-01-17T09:52:45.689Z,7.33
2023-01-17T09:53:47.709Z,7.32
2023-01-17T09:54:49.745Z,7.29
2023-01-17T09:55:51.746Z,7.23
2023-01-17T09:56:53.755Z,7.18
2023-01-17T09:57:55.767Z,7.07
2023-01-17T09:58:57.784Z,6.96
2023-01-17T10:00:03.603Z,6.84
2023-01-17T10:01:01.663Z,6.81
2023-01-17T10:02:03.813Z,6.81
2023-01-17T10:03:04.874Z,6.77
2023-01-17T10:04:06.984Z,6.69
2023-01-17T10:05:09.030Z,6.65
2023-01-17T10:06:11.014Z,6.61
2023-01-17T10:07:13.006Z,6.56
2023-01-17T10:08:15.066Z,6.53
2023-01-17T10:09:17.077Z,6.47
2023-01-17T10:10:19.113Z,6.51
2023-01-17T10:11:21.103Z,6.55
2023-01-17T10:12:23.108Z,6.53
2023-01-17T10:13:25.129Z,6.48
2023-01-17T10:14:27.145Z,6.45
2023-01-17T10:15:29.168Z,6.50
2023-01-17T10:16:31.239Z,6.56
2023-01-17T10:17:33.225Z,6.63
2023-01-17T10:18:35.263Z,6.69
2023-01-17T10:19:37.277Z,6.69
2023-01-17T10:20:39.283Z,6.80
2023-01-17T10:21:41.307Z,6.81
2023-01-17T10:22:43.336Z,6.80
2023-01-17T10:23:45.324Z,6.77
2023-01-17T10:24:47.343Z,6.73
2023-01-17T10:25:49.341Z,6.63
2023-01-17T10:26:51.384Z,6.59
2023-01-17T10:27:53.391Z,6.56
2023-01-17T10:28:55.418Z,6.55
2023-01-17T10:29:57.421Z,6.50
2023-01-17T10:30:59.521Z,6.44
2023-01-17T10:32:01.525Z,6.41
2023-01-17T10:33:03.548Z,6.38
2023-01-17T10:34:05.575Z,6.34
2023-01-17T10:35:07.589Z,6.35
2023-01-17T10:36:09.611Z,6.37
2023-01-17T10:37:11.635Z,6.34
2023-01-17T10:38:13.642Z,6.32
2023-01-17T10:39:15.686Z,6.29
2023-01-17T10:40:17.710Z,6.20
2023-01-17T10:41:19.731Z,6.17
2023-01-17T10:42:21.746Z,6.23
2023-01-17T10:43:23.742Z,6.23
2023-01-17T10:44:25.798Z,6.58
2023-01-17T10:45:27.831Z,8.19
2023-01-17T10:46:29.908Z,9.72
2023-01-17T10:47:31.892Z,10.95
2023-01-17T10:48:33.897Z,12.09
2023-01-17T10:49:35.968Z,12.82
2023-01-17T10:50:38.000Z,13.78
2023-01-17T10:51:40.025Z,14.22
2023-01-17T10:52:42.086Z,14.66
2023-01-17T10:53:44.136Z,15.03
2023-01-17T10:54:46.209Z,15.39
2023-01-17T10:55:48.214Z,15.55
2023-01-17T10:56:50.213Z,15.68
2023-01-17T10:57:52.251Z,15.41
2023-01-17T10:58:54.259Z,15.28
2023-01-17T10:59:56.281Z,14.12
2023-01-17T11:00:58.302Z,12.98
2023-01-17T11:02:00.410Z,11.86
2023-01-17T11:03:02.563Z,10.92
2023-01-17T11:04:04.573Z,9.97
2023-01-17T11:05:06.638Z,9.45
2023-01-17T11:06:08.713Z,9.06
2023-01-17T11:07:10.739Z,8.70
2023-01-17T11:08:12.820Z,8.41
2023-01-17T11:09:14.891Z,8.17
2023-01-17T11:10:16.963Z,8.02
2023-01-17T11:11:19.013Z,7.87
2023-01-17T11:12:21.060Z,7.76
2023-01-17T11:13:23.101Z,7.96
2023-01-17T11:14:25.110Z,8.00
2023-01-17T11:15:27.234Z,9.07
2023-01-17T11:16:29.247Z,10.44
2023-01-17T11:17:31.344Z,11.44
2023-01-17T11:18:33.405Z,11.83
2023-01-17T11:19:35.448Z,11.50
2023-01-17T11:20:37.482Z,12.28
2023-01-17T11:21:39.544Z,12.42
2023-01-17T11:22:41.549Z,11.90
2023-01-17T11:23:43.568Z,11.81
2023-01-17T11:24:45.612Z,11.33
2023-01-17T11:25:47.703Z,11.17
2023-01-17T11:26:49.784Z,11.41
2023-01-17T11:27:51.763Z,12.14
2023-01-17T11:28:53.788Z,12.09
2023-01-17T11:29:55.825Z,12.27
2023-01-17T11:30:57.885Z,13.27
2023-01-17T11:31:59.889Z,14.07
2023-01-17T11:33:01.901Z,14.62
2023-01-17T11:34:03.908Z,15.03
2023-01-17T11:35:05.941Z,15.43
2023-01-17T11:36:07.981Z,15.64
2023-01-17T11:37:09.993Z,15.88
2023-01-17T11:38:12.040Z,15.46
2023-01-17T11:39:14.047Z,14.35
2023-01-17T11:40:16.108Z,13.13
2023-01-17T11:41:18.143Z,12.14
2023-01-17T11:42:20.159Z,11.50
2023-01-17T11:43:22.196Z,10.81
2023-01-17T11:44:24.281Z,10.40
2023-01-17T11:45:26.284Z,10.04
2023-01-17T11:46:28.453Z,9.68
2023-01-17T11:47:30.480Z,9.30
2023-01-17T11:48:32.482Z,9.03
2023-01-17T11:49:34.511Z,8.71
2023-01-17T11:50:36.533Z,8.46
2023-01-17T11:51:38.575Z,8.19
2023-01-17T11:52:40.601Z,8.00
2023-01-17T11:53:42.628Z,7.79
2023-01-17T11:54:44.629Z,7.63
2023-01-17T11:55:46.640Z,7.51
2023-01-17T11:56:48.647Z,7.43
2023-01-17T11:57:50.767Z,7.35
2023-01-17T11:58:52.752Z,7.29
2023-01-17T11:59:54.773Z,7.21
2023-01-17T12:00:56.794Z,7.11
2023-01-17T12:01:58.786Z,7.05
2023-01-17T12:03:00.793Z,6.99
2023-01-17T12:04:02.886Z,6.96
2023-01-17T12:05:04.923Z,6.95
2023-01-17T12:06:06.923Z,6.95
2023-01-17T12:07:09.013Z,6.87
2023-01-17T12:08:11.013Z,6.83
2023-01-17T12:09:13.004Z,6.83
2023-01-17T12:10:15.068Z,6.84
2023-01-17T12:11:17.112Z,6.87
2023-01-17T12:12:19.093Z,6.99
2023-01-17T12:13:21.095Z,7.00
2023-01-17T12:14:23.107Z,7.06
2023-01-17T12:15:25.140Z,7.06
2023-01-17T12:16:27.152Z,7.06
2023-01-17T12:17:29.165Z,7.11
2023-01-17T12:18:31.175Z,7.13
2023-01-17T12:19:33.188Z,7.07
2023-01-17T12:20:35.214Z,7.06
2023-01-17T12:21:37.227Z,7.05
2023-01-17T12:22:39.233Z,7.14
2023-01-17T12:23:41.255Z,7.14
2023-01-17T12:24:43.259Z,7.10
2023-01-17T12:25:45.272Z,7.02
2023-01-17T12:26:47.295Z,6.95
2023-01-17T12:27:49.299Z,6.88
2023-01-17T12:28:51.369Z,6.84
2023-01-17T12:29:53.395Z,6.80
2023-01-17T12:30:55.430Z,6.66
2023-01-17T12:31:57.420Z,6.62
2023-01-17T12:32:59.449Z,6.56
2023-01-17T12:34:01.489Z,6.47
2023-01-17T12:35:03.556Z,6.40
2023-01-17T12:36:05.565Z,6.35
2023-01-17T12:37:07.570Z,6.30
2023-01-17T12:38:11.414Z,6.29
2023-01-17T12:39:11.856Z,6.19
2023-01-17T12:40:13.982Z,6.19
2023-01-17T12:41:15.995Z,6.20
2023-01-17T12:42:17.988Z,6.23
2023-01-17T12:43:20.019Z,6.19
2023-01-17T12:44:22.076Z,6.17
2023-01-17T12:45:24.067Z,6.14
2023-01-17T12:46:26.090Z,6.16
2023-01-17T12:47:28.099Z,6.17
2023-01-17T12:48:30.152Z,6.17
2023-01-17T12:49:32.181Z,6.20
2023-01-17T12:50:34.191Z,6.17
2023-01-17T12:51:36.213Z,6.19
2023-01-17T12:52:38.213Z,6.25
2023-01-17T12:53:40.253Z,6.26
2023-01-17T12:54:42.274Z,6.32
2023-01-17T12:55:44.285Z,6.35
2023-01-17T12:56:46.297Z,6.40
2023-01-17T12:57:48.315Z,6.45
2023-01-17T12:58:50.347Z,6.53
2023-01-17T12:59:52.367Z,6.58
2023-01-17T13:00:54.511Z,6.66
2023-01-17T13:01:56.728Z,6.74
2023-01-17T13:02:57.696Z,6.78
2023-01-17T13:03:59.730Z,6.83
2023-01-17T13:05:01.731Z,6.86
2023-01-17T13:06:03.731Z,6.92
2023-01-17T13:07:05.752Z,6.97
2023-01-17T13:08:07.764Z,7.03
2023-01-17T13:09:09.766Z,7.05
2023-01-17T13:10:11.936Z,7.10
2023-01-17T13:11:13.956Z,7.10
2023-01-17T13:12:16.008Z,7.11
2023-01-17T13:13:18.032Z,7.03
2023-01-17T13:14:20.157Z,7.03
2023-01-17T13:15:22.175Z,7.03
2023-01-17T13:16:24.265Z,7.05
2023-01-17T13:17:26.247Z,6.96
2023-01-17T13:18:28.270Z,6.92
2023-01-17T13:19:30.283Z,6.84
2023-01-17T13:20:32.291Z,6.84
2023-01-17T13:21:34.312Z,6.80
2023-01-17T13:22:36.338Z,6.80
2023-01-17T13:23:38.352Z,6.81
2023-01-17T13:24:40.368Z,6.83
2023-01-17T13:25:42.394Z,6.84
2023-01-17T13:26:44.409Z,6.87
2023-01-17T13:27:46.414Z,6.87
2023-01-17T13:28:48.458Z,6.87
2023-01-17T13:29:50.468Z,6.81
2023-01-17T13:30:52.489Z,6.77
2023-01-17T13:31:54.516Z,6.71
2023-01-17T13:32:56.523Z,6.66
2023-01-17T13:33:58.556Z,6.66
2023-01-17T13:35:01.747Z,6.65
2023-01-17T13:36:02.709Z,6.65
2023-01-17T13:37:04.742Z,6.62
2023-01-17T13:38:06.783Z,6.62
2023-01-17T13:39:08.787Z,6.65
2023-01-17T13:40:10.799Z,6.68
2023-01-17T13:41:12.805Z,6.71
2023-01-17T13:42:14.865Z,6.68
2023-01-17T13:43:16.885Z,6.68
2023-01-17T13:44:18.884Z,6.69
2023-01-17T13:45:21.005Z,6.69
2023-01-17T13:46:22.993Z,6.69
2023-01-17T13:47:24.987Z,6.76
2023-01-17T13:48:27.008Z,6.78
2023-01-17T13:49:29.066Z,6.81
2023-01-17T13:50:31.066Z,6.83
2023-01-17T13:51:33.091Z,6.80
2023-01-17T13:52:35.097Z,6.78
2023-01-17T13:53:37.174Z,6.83
2023-01-17T13:54:39.138Z,6.81
2023-01-17T13:55:41.202Z,6.83
2023-01-17T13:56:43.212Z,6.87
2023-01-17T13:57:45.199Z,6.87
2023-01-17T13:58:47.255Z,6.87
2023-01-17T13:59:49.237Z,6.91
2023-01-17T14:00:51.400Z,6.91
2023-01-17T14:01:53.565Z,6.91
2023-01-17T14:02:55.773Z,6.92
2023-01-17T14:03:56.677Z,6.92
2023-01-17T14:04:59.618Z,6.86
2023-01-17T14:06:00.581Z,6.87
2023-01-17T14:07:02.596Z,6.87
2023-01-17T14:08:04.618Z,6.87
2023-01-17T14:09:06.618Z,6.88
2023-01-17T14:10:08.620Z,6.87
2023-01-17T14:11:10.633Z,6.80
2023-01-17T14:12:12.652Z,6.68
2023-01-17T14:13:14.676Z,6.65
2023-01-17T14:14:16.698Z,6.62
2023-01-17T14:15:18.736Z,6.62
2023-01-17T14:16:20.800Z,6.63
2023-01-17T14:17:22.762Z,6.65
2023-01-17T14:18:24.780Z,6.62
2023-01-17T14:19:26.791Z,6.65
2023-01-17T14:20:28.827Z,6.66
2023-01-17T14:21:30.872Z,6.66
2023-01-17T14:22:42.835Z,6.63
2023-01-17T14:23:34.933Z,6.63
2023-01-17T14:24:36.956Z,6.65
2023-01-17T14:25:38.986Z,6.63
2023-01-17T14:26:41.008Z,6.61
2023-01-17T14:27:43.015Z,6.62
2023-01-17T14:28:45.048Z,6.59
2023-01-17T14:29:47.058Z,6.59
2023-01-17T14:30:49.074Z,6.56
2023-01-17T14:31:51.142Z,6.55
2023-01-17T14:32:53.107Z,6.55
2023-01-17T14:33:55.155Z,6.48
2023-01-17T14:34:57.184Z,6.51
2023-01-17T14:35:59.202Z,6.50
2023-01-17T14:37:01.207Z,6.48
2023-01-17T14:38:03.243Z,6.53
2023-01-17T14:39:05.241Z,6.51
2023-01-17T14:40:07.260Z,6.50
2023-01-17T14:41:09.274Z,6.51
2023-01-17T14:42:11.341Z,6.50
2023-01-17T14:43:13.312Z,6.51
2023-01-17T14:44:15.312Z,6.47
2023-01-17T14:45:17.327Z,6.48
2023-01-17T14:46:19.333Z,6.44
2023-01-17T14:47:21.364Z,6.44
2023-01-17T14:48:23.395Z,6.45
2023-01-17T14:49:25.401Z,6.43
2023-01-17T14:50:27.423Z,6.44
2023-01-17T14:51:29.433Z,6.40
2023-01-17T14:52:31.469Z,6.41
2023-01-17T14:53:33.485Z,6.41
2023-01-17T14:54:35.507Z,6.43
2023-01-17T14:55:37.535Z,6.44
2023-01-17T14:56:39.554Z,6.43
2023-01-17T14:57:41.614Z,6.40
2023-01-17T14:58:43.618Z,6.38
2023-01-17T14:59:45.619Z,6.35
2023-01-17T15:00:47.737Z,6.34
2023-01-17T15:02:05.740Z,6.30
2023-01-17T15:02:51.311Z,6.30
2023-01-17T15:03:53.437Z,6.30
2023-01-17T15:04:55.468Z,6.26
2023-01-17T15:05:57.496Z,6.25
2023-01-17T15:06:59.521Z,6.23
2023-01-17T15:08:01.566Z,6.23
2023-01-17T15:09:03.612Z,6.23
2023-01-17T15:10:05.621Z,6.23
2023-01-17T15:11:07.639Z,6.25
2023-01-17T15:12:09.664Z,6.25
2023-01-17T15:13:11.696Z,6.23
2023-01-17T15:14:13.701Z,6.23
2023-01-17T15:15:15.708Z,6.19
2023-01-17T15:16:17.755Z,6.16
2023-01-17T15:17:19.730Z,6.09
2023-01-17T15:18:21.772Z,6.09
2023-01-17T15:19:23.792Z,6.08
2023-01-17T15:20:25.791Z,6.07
2023-01-17T15:21:27.825Z,6.02
2023-01-17T15:22:29.904Z,5.99
2023-01-17T15:23:31.910Z,5.98
2023-01-17T15:24:33.923Z,5.94
2023-01-17T15:25:35.949Z,5.93
2023-01-17T15:26:37.966Z,5.90
2023-01-17T15:27:40.004Z,5.87
2023-01-17T15:28:42.048Z,5.82
2023-01-17T15:29:44.043Z,5.83
2023-01-17T15:30:46.152Z,5.80
2023-01-17T15:31:48.132Z,5.76
2023-01-17T15:32:50.159Z,5.79
2023-01-17T15:33:52.164Z,5.76
2023-01-17T15:34:54.191Z,5.80
2023-01-17T15:35:56.218Z,5.75
2023-01-17T15:36:58.221Z,5.75
